createdAt,value
2022-10-12T00:01:45.313Z,1.88
2022-10-12T00:04:14.152Z,2.00
2022-10-12T00:06:42.926Z,1.75
2022-10-12T00:09:13.144Z,2.33
2022-10-12T00:11:44.858Z,2.40
2022-10-12T00:14:13.039Z,2.10
2022-10-12T00:16:42.584Z,2.22
2022-10-12T00:19:17.643Z,2.38
2022-10-12T00:21:47.386Z,2.28
2022-10-12T00:24:16.014Z,2.47
2022-10-12T00:26:44.382Z,2.38
2022-10-12T00:29:12.710Z,2.58
2022-10-12T00:31:42.322Z,2.70
2022-10-12T00:34:13.481Z,2.22
2022-10-12T00:36:42.511Z,2.28
2022-10-12T00:39:11.403Z,2.17
2022-10-12T00:41:42.447Z,1.77
2022-10-12T00:44:47.110Z,2.28
2022-10-12T00:47:25.318Z,2.72
2022-10-12T00:49:58.179Z,1.85
2022-10-12T00:52:32.757Z,2.47
2022-10-12T00:55:02.315Z,1.80
2022-10-12T00:57:31.137Z,2.13
2022-10-12T01:00:03.652Z,1.92
2022-10-12T01:02:36.058Z,2.60
2022-10-12T01:05:07.084Z,2.60
2022-10-12T01:07:35.673Z,2.63
2022-10-12T01:10:04.531Z,2.45
2022-10-12T01:12:33.484Z,2.15
2022-10-12T01:15:02.212Z,2.50
2022-10-12T01:17:39.762Z,1.98
2022-10-12T01:20:45.402Z,2.88
2022-10-12T01:23:59.035Z,2.30
2022-10-12T01:27:06.241Z,2.88
2022-10-12T01:29:55.649Z,2.58
2022-10-12T01:32:28.673Z,2.30
2022-10-12T01:35:04.079Z,2.33
2022-10-12T01:37:43.657Z,2.15
2022-10-12T01:40:19.052Z,1.80
2022-10-12T01:42:48.360Z,2.20
2022-10-12T01:45:20.660Z,1.95
2022-10-12T01:47:55.611Z,2.17
2022-10-12T01:50:29.822Z,2.38
2022-10-12T01:53:05.657Z,2.50
2022-10-12T01:55:40.168Z,2.53
2022-10-12T01:58:28.640Z,3.20
2022-10-12T02:01:06.249Z,2.85
2022-10-12T02:03:41.120Z,3.10
2022-10-12T02:06:14.942Z,3.13
2022-10-12T02:08:48.935Z,2.85
2022-10-12T02:11:19.766Z,2.95
2022-10-12T02:13:52.493Z,2.75
2022-10-12T02:16:24.700Z,3.15
2022-10-12T02:18:55.720Z,3.20
2022-10-12T02:21:30.644Z,2.95
2022-10-12T02:24:06.259Z,2.92
2022-10-12T02:26:38.079Z,2.55
2022-10-12T02:29:11.072Z,2.13
2022-10-12T02:31:48.141Z,2.58
2022-10-12T02:34:19.350Z,2.28
2022-10-12T02:36:53.414Z,2.45
2022-10-12T02:39:26.285Z,2.20
2022-10-12T02:42:00.205Z,3.63
2022-10-12T02:44:32.820Z,3.72
2022-10-12T02:47:13.997Z,2.80
2022-10-12T02:49:44.784Z,3.13
2022-10-12T02:52:13.966Z,2.55
2022-10-12T02:54:42.442Z,4.35
2022-10-12T02:57:10.696Z,2.95
2022-10-12T02:59:39.109Z,4.03
2022-10-12T03:02:08.989Z,3.10
2022-10-12T03:04:39.554Z,2.67
2022-10-12T03:07:09.589Z,3.90
2022-10-12T03:09:37.814Z,3.25
2022-10-12T03:12:10.018Z,3.30
2022-10-12T03:14:39.580Z,2.85
2022-10-12T03:17:08.155Z,3.78
2022-10-12T03:19:38.449Z,2.95
2022-10-12T03:22:10.402Z,2.90
2022-10-12T03:24:39.001Z,3.40
2022-10-12T03:27:07.133Z,3.08
2022-10-12T03:29:35.477Z,3.60
2022-10-12T03:32:04.005Z,3.40
2022-10-12T03:34:32.103Z,3.55
2022-10-12T03:37:00.310Z,2.78
2022-10-12T03:39:30.284Z,2.90
2022-10-12T03:41:58.619Z,2.63
2022-10-12T03:44:27.117Z,2.83
2022-10-12T03:46:55.504Z,2.63
2022-10-12T03:49:25.019Z,2.70
2022-10-12T03:51:58.941Z,2.63
2022-10-12T03:54:30.736Z,2.40
2022-10-12T03:57:00.845Z,2.58
2022-10-12T03:59:29.053Z,2.72
2022-10-12T04:01:57.296Z,2.25
2022-10-12T04:04:27.230Z,3.10
2022-10-12T04:06:55.571Z,2.85
2022-10-12T04:09:23.861Z,2.47
2022-10-12T04:11:52.521Z,2.53
2022-10-12T04:14:22.178Z,3.38
2022-10-12T04:16:50.471Z,4.25
2022-10-12T04:19:18.810Z,2.63
2022-10-12T04:21:47.161Z,3.22
2022-10-12T04:24:15.639Z,3.85
2022-10-12T04:26:45.154Z,3.17
2022-10-12T04:29:15.541Z,3.30
2022-10-12T04:31:46.946Z,3.13
2022-10-12T04:34:15.351Z,3.55
2022-10-12T04:36:43.618Z,2.90
2022-10-12T04:39:12.095Z,2.97
2022-10-12T04:41:42.497Z,3.22
2022-10-12T04:44:10.943Z,3.53
2022-10-12T04:46:39.394Z,3.38
2022-10-12T04:49:11.637Z,2.90
2022-10-12T04:51:42.074Z,2.80
2022-10-12T04:54:11.588Z,2.42
2022-10-12T04:56:42.130Z,2.53
2022-10-12T04:59:14.130Z,2.97
2022-10-12T05:01:42.557Z,3.42
2022-10-12T05:04:12.718Z,2.83
2022-10-12T05:06:40.899Z,2.90
2022-10-12T05:09:13.204Z,3.65
2022-10-12T05:11:44.542Z,2.90
2022-10-12T05:14:13.186Z,3.38
2022-10-12T05:16:41.661Z,3.90
2022-10-12T05:19:12.074Z,3.95
2022-10-12T05:21:40.904Z,3.42
2022-10-12T05:24:09.982Z,3.83
2022-10-12T05:26:39.063Z,3.72
2022-10-12T05:29:09.097Z,3.80
2022-10-12T05:31:37.274Z,4.10
2022-10-12T05:34:07.522Z,4.10
2022-10-12T05:36:37.487Z,4.22
2022-10-12T05:39:06.026Z,3.50
2022-10-12T05:41:34.249Z,3.22
2022-10-12T05:44:02.414Z,3.58
2022-10-12T05:46:31.118Z,3.58
2022-10-12T05:48:59.374Z,3.78
2022-10-12T05:51:28.997Z,3.67
2022-10-12T05:53:59.319Z,4.10
2022-10-12T05:56:27.601Z,4.60
2022-10-12T05:58:59.571Z,4.38
2022-10-12T06:01:28.249Z,4.47
2022-10-12T06:03:56.459Z,5.18
2022-10-12T06:06:26.703Z,4.95
2022-10-12T06:08:54.922Z,4.65
2022-10-12T06:11:30.359Z,4.97
2022-10-12T06:14:01.022Z,4.38
2022-10-12T06:16:30.465Z,4.85
2022-10-12T06:19:00.742Z,3.95
2022-10-12T06:21:33.622Z,4.30
2022-10-12T06:24:02.748Z,4.82
2022-10-12T06:26:32.482Z,4.18
2022-10-12T06:29:02.856Z,5.85
2022-10-12T06:31:32.479Z,3.80
2022-10-12T06:34:00.873Z,4.07
2022-10-12T06:36:29.088Z,4.03
2022-10-12T06:38:58.118Z,4.40
2022-10-12T06:41:26.535Z,4.15
2022-10-12T06:43:56.299Z,4.40
2022-10-12T06:46:24.885Z,3.65
2022-10-12T06:48:53.340Z,4.03
2022-10-12T06:51:21.737Z,3.55
2022-10-12T06:53:51.041Z,4.18
2022-10-12T06:56:19.652Z,3.67
2022-10-12T06:58:48.161Z,3.65
2022-10-12T07:01:18.926Z,3.22
2022-10-12T07:03:48.222Z,3.17
2022-10-12T07:06:16.693Z,3.30
2022-10-12T07:08:48.913Z,3.00
2022-10-12T07:11:17.276Z,2.92
2022-10-12T07:13:45.579Z,3.50
2022-10-12T07:16:18.506Z,4.60
2022-10-12T07:18:49.286Z,3.85
2022-10-12T07:21:19.150Z,5.30
2022-10-12T07:23:47.723Z,4.00
2022-10-12T07:26:16.326Z,3.83
2022-10-12T07:28:44.808Z,3.83
2022-10-12T07:31:13.793Z,4.47
2022-10-12T07:33:42.082Z,3.83
2022-10-12T07:36:14.812Z,3.83
2022-10-12T07:38:47.068Z,3.47
2022-10-12T07:41:15.828Z,3.65
2022-10-12T07:43:44.659Z,3.60
2022-10-12T07:46:13.051Z,4.10
2022-10-12T07:48:45.689Z,3.28
2022-10-12T07:51:19.274Z,2.88
2022-10-12T07:53:47.552Z,2.58
2022-10-12T07:56:16.203Z,2.45
2022-10-12T07:58:44.981Z,2.80
2022-10-12T08:01:13.167Z,2.75
2022-10-12T08:03:41.578Z,2.13
2022-10-12T08:06:11.369Z,1.83
2022-10-12T08:08:41.512Z,2.20
2022-10-12T08:11:10.596Z,3.22
2022-10-12T08:13:39.917Z,1.80
2022-10-12T08:16:13.052Z,2.25
2022-10-12T08:18:43.433Z,2.25
2022-10-12T08:21:13.646Z,2.03
2022-10-12T08:23:47.083Z,3.10
2022-10-12T08:26:16.557Z,1.80
2022-10-12T08:28:44.925Z,1.88
2022-10-12T08:31:16.386Z,1.90
2022-10-12T08:33:45.790Z,1.75
2022-10-12T08:36:14.830Z,2.40
2022-10-12T08:38:45.529Z,2.13
2022-10-12T08:41:26.442Z,2.22
2022-10-12T08:44:20.669Z,2.10
2022-10-12T08:46:51.858Z,1.90
2022-10-12T08:49:25.036Z,2.00
2022-10-12T08:51:56.350Z,1.70
2022-10-12T08:54:30.859Z,1.65
2022-10-12T08:56:59.472Z,2.10
2022-10-12T08:59:29.492Z,2.08
2022-10-12T09:02:10.080Z,1.73
2022-10-12T09:04:47.920Z,1.80
2022-10-12T09:07:22.615Z,2.42
2022-10-12T09:10:04.366Z,2.08
2022-10-12T09:12:50.403Z,1.52
2022-10-12T09:15:22.538Z,1.83
2022-10-12T09:17:54.067Z,2.20
2022-10-12T09:20:27.612Z,2.28
2022-10-12T09:23:01.136Z,2.60
2022-10-12T09:25:30.927Z,2.10
2022-10-12T09:28:16.673Z,2.03
2022-10-12T09:31:03.448Z,1.80
2022-10-12T09:33:43.576Z,2.10
2022-10-12T09:36:17.009Z,2.55
2022-10-12T09:38:45.772Z,2.17
2022-10-12T09:41:22.522Z,2.20
2022-10-12T09:43:53.554Z,1.80
2022-10-12T09:46:34.740Z,2.20
2022-10-12T09:49:03.761Z,2.00
2022-10-12T09:51:34.841Z,2.15
2022-10-12T09:54:06.271Z,2.70
2022-10-12T09:56:41.798Z,2.20
2022-10-12T09:59:30.144Z,2.40
2022-10-12T10:02:01.418Z,2.50
2022-10-12T10:04:32.445Z,2.25
2022-10-12T10:07:19.658Z,2.72
2022-10-12T10:09:48.759Z,2.80
2022-10-12T10:12:25.336Z,2.58
2022-10-12T10:14:56.967Z,2.47
2022-10-12T10:17:28.087Z,2.10
2022-10-12T10:19:58.177Z,2.45
2022-10-12T10:22:27.626Z,2.42
2022-10-12T10:25:00.478Z,3.05
2022-10-12T10:27:42.519Z,2.40
2022-10-12T10:30:40.834Z,2.83
2022-10-12T10:33:19.019Z,2.40
2022-10-12T10:35:58.171Z,2.58
2022-10-12T10:38:26.800Z,3.35
2022-10-12T10:40:57.581Z,2.92
2022-10-12T10:43:30.287Z,2.60
2022-10-12T10:46:02.129Z,2.95
2022-10-12T10:48:32.612Z,2.97
2022-10-12T10:51:02.506Z,3.63
2022-10-12T10:53:34.134Z,3.28
2022-10-12T10:56:07.973Z,2.53
2022-10-12T10:58:46.181Z,2.97
2022-10-12T11:01:22.980Z,3.85
2022-10-12T11:03:58.356Z,2.42
2022-10-12T11:06:36.327Z,3.10
2022-10-12T11:09:08.608Z,2.85
2022-10-12T11:11:39.540Z,2.85
2022-10-12T11:14:16.418Z,2.80
2022-10-12T11:16:49.499Z,2.30
2022-10-12T11:19:31.130Z,2.83
2022-10-12T11:22:05.068Z,2.35
2022-10-12T11:24:37.654Z,2.70
2022-10-12T11:27:15.552Z,2.20
2022-10-12T11:29:46.625Z,2.47
2022-10-12T11:32:27.358Z,2.38
2022-10-12T11:34:59.682Z,1.90
2022-10-12T11:37:35.024Z,2.53
2022-10-12T11:40:07.365Z,2.30
2022-10-12T11:42:43.662Z,2.63
2022-10-12T11:45:24.643Z,2.80
2022-10-12T11:47:57.742Z,2.20
2022-10-12T11:50:31.503Z,2.40
2022-10-12T11:53:03.426Z,2.33
2022-10-12T11:55:42.195Z,2.30
2022-10-12T11:58:18.968Z,2.50
2022-10-12T12:01:06.934Z,2.78
2022-10-12T12:04:22.616Z,2.42
2022-10-12T12:06:58.136Z,2.95
2022-10-12T12:09:50.576Z,2.80
2022-10-12T12:12:22.574Z,2.15
2022-10-12T12:15:06.567Z,1.92
2022-10-12T12:17:38.130Z,1.80
2022-10-12T12:21:01.225Z,2.05
2022-10-12T12:23:33.626Z,1.75
2022-10-12T12:26:20.652Z,1.83
2022-10-12T12:28:51.116Z,2.25
2022-10-12T12:31:28.068Z,2.00
2022-10-12T12:34:07.259Z,2.10
2022-10-12T12:36:37.816Z,2.28
2022-10-12T12:39:09.786Z,2.28
2022-10-12T12:41:55.325Z,2.17
2022-10-12T12:44:46.923Z,2.10
2022-10-12T12:50:35.517Z,2.17
2022-10-12T12:53:07.286Z,1.80
2022-10-12T12:56:04.851Z,1.80
2022-10-12T12:59:01.122Z,2.00
2022-10-12T13:02:05.575Z,1.90
2022-10-12T13:04:52.445Z,2.40
2022-10-12T13:07:49.052Z,2.03
2022-10-12T13:10:30.369Z,2.22
2022-10-12T13:13:17.189Z,1.90
2022-10-12T13:16:00.086Z,2.40
2022-10-12T13:18:53.194Z,2.03
2022-10-12T13:21:25.546Z,2.47
2022-10-12T13:24:04.614Z,2.10
2022-10-12T13:27:23.756Z,1.77
2022-10-12T13:30:00.606Z,2.20
2022-10-12T13:32:43.098Z,2.05
2022-10-12T13:35:18.424Z,2.80
2022-10-12T13:38:01.867Z,2.00
2022-10-12T13:40:56.734Z,2.28
2022-10-12T13:43:46.845Z,2.08
2022-10-12T13:46:42.898Z,1.92
2022-10-12T13:49:26.570Z,2.00
2022-10-12T13:52:33.147Z,1.85
2022-10-12T13:55:26.204Z,2.25
2022-10-12T13:58:41.106Z,1.80
2022-10-12T14:01:25.946Z,2.05
2022-10-12T14:04:10.274Z,1.98
2022-10-12T14:06:43.221Z,2.00
2022-10-12T14:09:33.460Z,2.20
2022-10-12T14:16:20.056Z,1.85
2022-10-12T14:18:54.219Z,1.88
2022-10-12T14:22:32.247Z,2.00
2022-10-12T14:25:11.884Z,1.90
2022-10-12T14:27:53.968Z,1.83
2022-10-12T14:30:44.639Z,2.45
2022-10-12T14:33:39.695Z,2.25
2022-10-12T14:36:41.259Z,1.90
2022-10-12T14:39:27.770Z,2.47
2022-10-12T14:42:27.322Z,1.95
2022-10-12T14:44:56.470Z,1.98
2022-10-12T14:48:43.354Z,1.92
2022-10-12T14:51:30.840Z,2.08
2022-10-12T14:54:06.902Z,2.17
2022-10-12T14:56:36.669Z,2.42
2022-10-12T14:59:21.537Z,2.53
2022-10-12T15:01:57.092Z,2.00
2022-10-12T15:04:56.099Z,2.30
2022-10-12T15:07:44.630Z,2.38
2022-10-12T15:10:26.363Z,3.58
2022-10-12T15:16:01.457Z,2.13
2022-10-12T15:18:42.794Z,2.45
2022-10-12T15:21:36.678Z,2.35
2022-10-12T15:24:23.128Z,1.80
2022-10-12T15:27:19.049Z,2.10
2022-10-12T15:29:50.328Z,2.67
2022-10-12T15:32:27.305Z,2.22
2022-10-12T15:35:53.898Z,2.65
2022-10-12T15:38:34.308Z,2.53
2022-10-12T15:41:21.811Z,2.38
2022-10-12T15:44:02.611Z,2.15
2022-10-12T15:47:03.540Z,2.15
2022-10-12T15:49:34.493Z,2.25
2022-10-12T15:52:19.101Z,1.98
2022-10-12T15:54:51.642Z,2.60
2022-10-12T15:57:46.774Z,1.90
2022-10-12T16:00:21.652Z,2.50
2022-10-12T16:03:25.477Z,2.38
2022-10-12T16:06:22.218Z,2.63
2022-10-12T16:08:55.537Z,2.50
2022-10-12T16:11:25.862Z,2.15
2022-10-12T16:14:11.106Z,2.42
2022-10-12T16:16:51.463Z,2.00
2022-10-12T16:19:20.897Z,2.38
2022-10-12T16:21:59.198Z,2.30
2022-10-12T16:24:32.852Z,2.83
2022-10-12T16:27:03.571Z,2.83
2022-10-12T16:29:32.569Z,3.90
2022-10-12T16:32:03.037Z,10.95
2022-10-12T16:34:35.159Z,19.08
2022-10-12T16:37:04.529Z,13.10
2022-10-12T16:39:33.402Z,8.98
2022-10-12T16:42:02.230Z,4.43
2022-10-12T16:44:31.005Z,2.55
2022-10-12T16:47:04.281Z,2.42
2022-10-12T16:49:36.999Z,2.45
2022-10-12T16:52:07.746Z,2.90
2022-10-12T16:54:39.519Z,3.00
2022-10-12T16:57:11.795Z,4.05
2022-10-12T16:59:44.425Z,3.55
2022-10-12T17:02:15.835Z,4.05
2022-10-12T17:04:49.214Z,3.85
2022-10-12T17:07:21.668Z,3.60
2022-10-12T17:09:51.082Z,3.42
2022-10-12T17:12:20.496Z,4.53
2022-10-12T17:14:50.509Z,5.30
2022-10-12T17:17:21.338Z,6.97
2022-10-12T17:20:08.752Z,5.07
2022-10-12T17:22:41.378Z,6.07
2022-10-12T17:25:17.017Z,6.32
2022-10-12T17:27:56.519Z,5.07
2022-10-12T17:30:26.312Z,4.43
2022-10-12T17:32:55.919Z,3.42
2022-10-12T17:35:28.022Z,3.05
2022-10-12T17:37:57.098Z,6.45
2022-10-12T17:40:26.494Z,5.10
2022-10-12T17:42:55.925Z,5.80
2022-10-12T17:45:25.166Z,6.00
2022-10-12T17:47:55.626Z,6.05
2022-10-12T17:50:25.459Z,5.65
2022-10-12T17:52:53.853Z,6.57
2022-10-12T17:55:47.017Z,5.65
2022-10-12T17:58:14.428Z,5.80
2022-10-12T18:00:43.252Z,6.13
2022-10-12T18:03:12.596Z,10.07
2022-10-12T18:05:43.266Z,13.88
2022-10-12T18:08:12.928Z,10.32
2022-10-12T18:10:42.288Z,12.65
2022-10-12T18:13:11.191Z,14.23
2022-10-12T18:15:49.705Z,12.95
2022-10-12T18:18:18.086Z,9.82
2022-10-12T18:20:50.962Z,9.65
2022-10-12T18:23:20.431Z,8.57
2022-10-12T18:25:51.111Z,21.33
2022-10-12T18:28:19.532Z,6.50
2022-10-12T18:30:48.728Z,9.18
2022-10-12T18:33:20.836Z,8.35
2022-10-12T18:35:50.944Z,7.93
2022-10-12T18:38:20.026Z,10.32
2022-10-12T18:40:48.836Z,11.55
2022-10-12T18:43:17.626Z,12.77
2022-10-12T18:45:47.010Z,13.52
2022-10-12T18:48:17.375Z,12.15
2022-10-12T18:50:47.048Z,24.02
2022-10-12T18:53:17.500Z,14.00
2022-10-12T18:55:46.368Z,14.05
2022-10-12T18:58:15.906Z,11.82
2022-10-12T19:00:45.421Z,9.88
2022-10-12T19:03:14.705Z,0.10
2022-10-12T19:05:43.459Z,8.50
2022-10-12T19:08:14.824Z,2.92
2022-10-12T19:10:45.248Z,6.70
2022-10-12T19:13:14.229Z,5.47
2022-10-12T19:15:43.293Z,5.22
2022-10-12T19:18:14.844Z,4.03
2022-10-12T19:20:44.150Z,4.97
2022-10-12T19:23:17.798Z,5.35
2022-10-12T19:25:48.246Z,4.88
2022-10-12T19:28:17.192Z,5.05
2022-10-12T19:30:47.036Z,5.28
2022-10-12T19:33:18.134Z,6.05
2022-10-12T19:35:47.637Z,5.28
2022-10-12T19:38:16.655Z,5.50
2022-10-12T19:40:48.803Z,5.40
2022-10-12T19:43:25.987Z,5.00
2022-10-12T19:45:55.259Z,4.93
2022-10-12T19:48:35.498Z,4.82
2022-10-12T19:51:29.578Z,5.18
2022-10-12T19:54:15.738Z,5.05
2022-10-12T19:57:06.171Z,5.13
2022-10-12T19:59:41.699Z,5.40
2022-10-12T20:02:26.019Z,4.43
2022-10-12T20:04:56.879Z,5.18
2022-10-12T20:07:39.449Z,6.22
2022-10-12T20:10:11.807Z,5.20
2022-10-12T20:12:41.072Z,5.10
2022-10-12T20:15:12.023Z,4.75
2022-10-12T20:17:41.024Z,4.75
2022-10-12T20:20:11.146Z,4.90
2022-10-12T20:22:39.558Z,4.65
2022-10-12T20:25:09.937Z,5.03
2022-10-12T20:27:40.417Z,4.75
2022-10-12T20:30:12.184Z,5.60
2022-10-12T20:32:43.780Z,6.00
2022-10-12T20:35:14.625Z,6.35
2022-10-12T20:37:45.409Z,5.50
2022-10-12T20:40:29.201Z,5.20
2022-10-12T20:42:58.331Z,5.30
2022-10-12T20:45:29.884Z,5.35
2022-10-12T20:47:59.189Z,6.00
2022-10-12T20:50:29.087Z,5.53
2022-10-12T20:52:57.991Z,6.00
2022-10-12T20:55:27.310Z,5.07
2022-10-12T20:58:04.591Z,5.13
2022-10-12T21:00:35.810Z,4.80
2022-10-12T21:03:04.971Z,5.07
2022-10-12T21:05:38.223Z,5.47
2022-10-12T21:08:07.832Z,5.40
2022-10-12T21:10:40.105Z,5.03
2022-10-12T21:13:09.172Z,5.78
2022-10-12T21:15:39.738Z,5.15
2022-10-12T21:18:08.377Z,5.47
2022-10-12T21:20:39.398Z,5.15
2022-10-12T21:23:08.039Z,5.30
2022-10-12T21:25:36.696Z,5.13
2022-10-12T21:28:22.186Z,5.70
2022-10-12T21:30:53.238Z,5.70
2022-10-12T21:33:22.185Z,6.53
2022-10-12T21:35:51.277Z,5.25
2022-10-12T21:38:20.058Z,6.40
2022-10-12T21:40:49.099Z,5.90
2022-10-12T21:43:17.881Z,6.45
2022-10-12T21:45:46.530Z,6.47
2022-10-12T21:48:16.612Z,6.53
2022-10-12T21:50:47.662Z,6.28
2022-10-12T21:53:16.649Z,6.70
2022-10-12T21:55:46.031Z,6.35
2022-10-12T21:58:17.065Z,7.93
2022-10-12T22:00:46.043Z,6.15
2022-10-12T22:03:16.814Z,6.53
2022-10-12T22:05:46.241Z,6.15
2022-10-12T22:08:15.217Z,6.22
2022-10-12T22:10:45.613Z,6.07
2022-10-12T22:13:14.556Z,7.20
2022-10-12T22:15:43.831Z,7.00
2022-10-12T22:18:15.768Z,6.38
2022-10-12T22:20:44.746Z,6.93
2022-10-12T22:23:13.440Z,7.40
2022-10-12T22:25:45.219Z,7.47
2022-10-12T22:28:14.719Z,7.50
2022-10-12T22:30:43.743Z,7.60
2022-10-12T22:33:12.681Z,6.72
2022-10-12T22:35:53.956Z,6.70
2022-10-12T22:38:23.174Z,6.40
2022-10-12T22:41:00.096Z,6.40
2022-10-12T22:43:32.536Z,5.80
2022-10-12T22:46:02.769Z,5.88
2022-10-12T22:48:32.079Z,5.55
2022-10-12T22:51:03.091Z,5.95
2022-10-12T22:53:34.436Z,5.65
2022-10-12T22:56:04.958Z,5.70
2022-10-12T22:58:34.905Z,6.18
2022-10-12T23:01:06.950Z,6.68
2022-10-12T23:03:36.772Z,5.57
2022-10-12T23:06:07.957Z,6.03
2022-10-12T23:08:39.144Z,6.15
2022-10-12T23:11:10.135Z,7.28
2022-10-12T23:13:39.897Z,7.68
2022-10-12T23:16:11.676Z,6.22
2022-10-12T23:18:41.515Z,7.57
2022-10-12T23:21:14.065Z,5.70
2022-10-12T23:23:43.488Z,6.50
2022-10-12T23:26:15.947Z,7.47
2022-10-12T23:28:45.718Z,7.55
2022-10-12T23:31:19.309Z,8.40
2022-10-12T23:33:48.500Z,8.38
2022-10-12T23:36:19.856Z,8.50
2022-10-12T23:38:50.192Z,9.10
2022-10-12T23:41:18.730Z,8.95
2022-10-12T23:43:52.963Z,9.20
2022-10-12T23:46:21.279Z,9.45
2022-10-12T23:48:51.244Z,10.52
2022-10-12T23:51:25.710Z,9.45
2022-10-12T23:53:56.484Z,9.75
2022-10-12T23:56:25.357Z,9.52
2022-10-12T23:58:54.187Z,9.75
